createdAt,value
2017-12-15T00:00:33.189Z,2.50
2017-12-15T00:03:01.459Z,2.80
2017-12-15T00:05:28.945Z,2.33
2017-12-15T00:07:56.414Z,2.33
2017-12-15T00:10:23.883Z,3.73
2017-12-15T00:12:51.409Z,2.90
2017-12-15T00:15:18.870Z,3.27
2017-12-15T00:17:46.341Z,2.70
2017-12-15T00:20:13.821Z,3.50
2017-12-15T00:22:41.279Z,2.80
2017-12-15T00:25:09.154Z,3.43
2017-12-15T00:27:36.599Z,3.50
2017-12-15T00:30:04.109Z,2.90
2017-12-15T00:32:31.562Z,3.93
2017-12-15T00:34:59.080Z,3.17
2017-12-15T00:37:26.504Z,3.60
2017-12-15T00:39:53.943Z,3.90
2017-12-15T00:42:21.443Z,4.17
2017-12-15T00:44:49.679Z,3.57
2017-12-15T00:47:17.194Z,3.60
2017-12-15T00:49:45.432Z,4.60
2017-12-15T00:52:12.910Z,4.30
2017-12-15T00:54:40.426Z,5.00
2017-12-15T00:57:08.687Z,3.90
2017-12-15T00:59:36.159Z,4.63
2017-12-15T01:02:03.680Z,4.37
2017-12-15T01:04:32.069Z,4.40
2017-12-15T01:06:59.595Z,4.40
2017-12-15T01:09:27.030Z,4.10
2017-12-15T01:11:54.496Z,4.60
2017-12-15T01:14:22.022Z,4.87
2017-12-15T01:16:50.301Z,5.10
2017-12-15T01:19:17.786Z,4.60
2017-12-15T01:21:45.303Z,5.00
2017-12-15T01:24:12.783Z,5.40
2017-12-15T01:26:40.299Z,4.70
2017-12-15T01:29:07.779Z,5.83
2017-12-15T01:31:35.266Z,4.50
2017-12-15T01:34:02.801Z,6.17
2017-12-15T01:36:30.305Z,5.67
2017-12-15T01:38:57.756Z,6.57
2017-12-15T01:41:25.274Z,6.37
2017-12-15T01:43:52.727Z,5.97
2017-12-15T01:46:20.374Z,5.23
2017-12-15T01:48:48.796Z,5.47
2017-12-15T01:51:17.036Z,6.50
2017-12-15T01:53:45.288Z,7.03
2017-12-15T01:56:12.774Z,6.37
2017-12-15T01:58:41.011Z,5.87
2017-12-15T02:01:08.470Z,6.47
2017-12-15T02:03:35.922Z,6.83
2017-12-15T02:06:03.422Z,6.30
2017-12-15T02:08:30.921Z,6.33
2017-12-15T02:10:58.364Z,7.63
2017-12-15T02:13:26.602Z,8.27
2017-12-15T02:15:54.116Z,7.93
2017-12-15T02:18:22.408Z,8.50
2017-12-15T02:20:50.676Z,13.20
2017-12-15T02:23:18.182Z,10.60
2017-12-15T02:25:45.650Z,8.47
2017-12-15T02:28:13.159Z,6.80
2017-12-15T02:30:40.652Z,8.77
2017-12-15T02:33:08.144Z,8.17
2017-12-15T02:35:35.606Z,7.90
2017-12-15T02:38:03.113Z,8.17
2017-12-15T02:40:31.368Z,7.83
2017-12-15T02:42:58.873Z,7.40
2017-12-15T02:45:26.370Z,8.70
2017-12-15T02:47:53.863Z,7.97
2017-12-15T02:50:21.312Z,8.37
2017-12-15T02:52:48.798Z,7.00
2017-12-15T02:55:16.263Z,8.30
2017-12-15T02:57:43.756Z,8.33
2017-12-15T03:00:11.221Z,7.87
2017-12-15T03:02:38.710Z,7.90
2017-12-15T03:05:06.172Z,7.27
2017-12-15T03:07:33.685Z,6.30
2017-12-15T03:10:01.932Z,7.47
2017-12-15T03:12:29.428Z,7.23
2017-12-15T03:14:56.894Z,8.27
2017-12-15T03:17:25.137Z,8.60
2017-12-15T03:19:52.599Z,7.53
2017-12-15T03:22:20.090Z,8.10
2017-12-15T03:24:48.309Z,8.50
2017-12-15T03:27:15.773Z,8.60
2017-12-15T03:29:43.266Z,9.07
2017-12-15T03:32:10.786Z,9.20
2017-12-15T03:34:38.319Z,9.00
2017-12-15T03:37:05.756Z,9.30
2017-12-15T03:39:33.303Z,8.67
2017-12-15T03:42:00.772Z,9.67
2017-12-15T03:44:28.231Z,10.73
2017-12-15T03:46:55.738Z,10.87
2017-12-15T03:49:24.016Z,10.57
2017-12-15T03:51:52.257Z,11.53
2017-12-15T03:54:19.742Z,10.07
2017-12-15T03:56:47.177Z,10.50
2017-12-15T03:59:15.265Z,11.20
2017-12-15T04:01:42.770Z,11.23
2017-12-15T04:04:11.009Z,10.77
2017-12-15T04:06:38.474Z,9.80
2017-12-15T04:09:05.961Z,10.57
2017-12-15T04:11:33.753Z,9.37
2017-12-15T04:14:02.000Z,9.77
2017-12-15T04:16:29.456Z,8.90
2017-12-15T04:18:56.943Z,11.03
2017-12-15T04:21:25.157Z,9.90
2017-12-15T04:23:52.711Z,8.83
2017-12-15T04:26:20.121Z,8.80
2017-12-15T04:28:47.617Z,8.80
2017-12-15T04:31:15.899Z,9.40
2017-12-15T04:33:43.342Z,10.50
2017-12-15T04:36:10.819Z,9.40
2017-12-15T04:38:39.051Z,9.20
2017-12-15T04:41:06.536Z,10.70
2017-12-15T04:43:35.540Z,11.33
2017-12-15T04:46:02.998Z,11.03
2017-12-15T04:48:30.711Z,10.67
2017-12-15T04:50:58.205Z,11.27
2017-12-15T04:53:25.721Z,10.20
2017-12-15T04:55:53.192Z,10.07
2017-12-15T04:58:20.667Z,10.33
2017-12-15T05:00:48.155Z,8.67
2017-12-15T05:03:15.640Z,9.87
2017-12-15T05:05:43.086Z,9.03
2017-12-15T05:08:10.570Z,7.10
2017-12-15T05:10:38.068Z,7.67
2017-12-15T05:13:05.590Z,7.47
2017-12-15T05:15:33.021Z,7.30
2017-12-15T05:18:00.493Z,7.60
2017-12-15T05:20:27.992Z,7.03
2017-12-15T05:22:55.462Z,7.07
2017-12-15T05:25:23.675Z,7.33
2017-12-15T05:27:51.182Z,8.67
2017-12-15T05:30:18.668Z,7.83
2017-12-15T05:32:46.978Z,6.77
2017-12-15T05:35:14.450Z,7.50
2017-12-15T05:37:41.894Z,7.10
2017-12-15T05:40:09.428Z,7.80
2017-12-15T05:42:37.659Z,7.43
2017-12-15T05:45:05.115Z,7.10
2017-12-15T05:47:32.656Z,6.87
2017-12-15T05:50:00.878Z,7.10
2017-12-15T05:52:28.405Z,7.00
2017-12-15T05:54:55.859Z,7.17
2017-12-15T05:57:23.308Z,7.03
2017-12-15T05:59:51.573Z,6.20
2017-12-15T06:02:19.039Z,6.87
2017-12-15T06:04:46.551Z,6.87
2017-12-15T06:07:14.011Z,6.03
2017-12-15T06:09:41.470Z,6.17
2017-12-15T06:12:09.015Z,7.20
2017-12-15T06:14:36.449Z,6.57
2017-12-15T06:17:03.991Z,7.10
2017-12-15T06:19:31.436Z,6.60
2017-12-15T06:21:58.891Z,6.50
2017-12-15T06:24:26.360Z,7.27
2017-12-15T06:26:53.835Z,8.23
2017-12-15T06:29:21.316Z,7.07
2017-12-15T06:31:48.809Z,7.47
2017-12-15T06:34:17.036Z,7.33
2017-12-15T06:36:45.382Z,6.90
2017-12-15T06:39:12.875Z,7.33
2017-12-15T06:41:40.336Z,6.93
2017-12-15T06:44:07.988Z,6.20
2017-12-15T06:46:35.444Z,6.70
2017-12-15T06:49:02.949Z,7.20
2017-12-15T06:51:30.414Z,6.73
2017-12-15T06:53:57.933Z,7.37
2017-12-15T06:56:25.406Z,7.30
2017-12-15T06:58:52.859Z,6.63
2017-12-15T07:01:20.370Z,7.50
2017-12-15T07:03:47.831Z,7.70
2017-12-15T07:06:15.352Z,10.47
2017-12-15T07:08:42.800Z,8.90
2017-12-15T07:11:10.380Z,7.47
2017-12-15T07:13:38.791Z,7.57
2017-12-15T07:16:06.221Z,7.70
2017-12-15T07:18:33.684Z,6.83
2017-12-15T07:21:01.138Z,8.83
2017-12-15T07:23:28.662Z,6.47
2017-12-15T07:25:56.169Z,8.00
2017-12-15T07:28:23.624Z,7.40
2017-12-15T07:30:51.063Z,5.80
2017-12-15T07:33:18.621Z,6.07
2017-12-15T07:35:46.802Z,4.90
2017-12-15T07:38:15.130Z,6.27
2017-12-15T07:40:42.593Z,5.57
2017-12-15T07:43:10.046Z,7.10
2017-12-15T07:45:37.581Z,6.23
2017-12-15T07:48:05.054Z,5.90
2017-12-15T07:50:32.557Z,6.67
2017-12-15T07:53:00.853Z,6.30
2017-12-15T07:55:29.774Z,6.50
2017-12-15T07:57:57.251Z,6.67
2017-12-15T08:00:24.696Z,11.03
2017-12-15T08:02:52.190Z,9.70
2017-12-15T08:05:19.703Z,6.80
2017-12-15T08:07:47.233Z,7.80
2017-12-15T08:10:14.621Z,6.80
2017-12-15T08:12:42.215Z,7.23
2017-12-15T08:15:09.651Z,5.83
2017-12-15T08:17:37.208Z,7.10
2017-12-15T08:20:04.651Z,6.83
2017-12-15T08:22:32.164Z,7.40
2017-12-15T08:24:59.604Z,6.50
2017-12-15T08:27:27.152Z,8.30
2017-12-15T08:29:54.623Z,6.50
2017-12-15T08:32:22.841Z,7.67
2017-12-15T08:34:50.352Z,6.90
2017-12-15T08:37:18.597Z,8.17
2017-12-15T08:39:46.093Z,6.23
2017-12-15T08:42:14.413Z,7.30
2017-12-15T08:44:41.888Z,6.50
2017-12-15T08:47:09.393Z,7.87
2017-12-15T08:49:36.878Z,7.07
2017-12-15T08:52:04.408Z,7.67
2017-12-15T08:54:31.871Z,9.60
2017-12-15T08:56:59.391Z,7.50
2017-12-15T08:59:26.872Z,7.20
2017-12-15T09:01:54.569Z,8.03
2017-12-15T09:04:21.990Z,7.27
2017-12-15T09:06:49.450Z,7.30
2017-12-15T09:09:16.928Z,6.47
2017-12-15T09:11:44.433Z,6.77
2017-12-15T09:14:12.688Z,7.27
2017-12-15T09:16:40.172Z,7.00
2017-12-15T09:19:09.169Z,8.00
2017-12-15T09:21:36.867Z,8.40
2017-12-15T09:24:04.341Z,8.40
2017-12-15T09:26:31.799Z,8.47
2017-12-15T09:29:00.747Z,6.90
2017-12-15T09:31:28.205Z,7.60
2017-12-15T09:33:55.661Z,7.30
2017-12-15T09:36:23.153Z,7.90
2017-12-15T09:38:50.624Z,7.60
2017-12-15T09:41:18.857Z,8.87
2017-12-15T09:43:46.347Z,7.53
2017-12-15T09:46:13.849Z,8.50
2017-12-15T09:48:41.506Z,8.80
2017-12-15T09:51:08.975Z,8.43
2017-12-15T09:53:36.405Z,8.03
2017-12-15T09:56:04.666Z,7.93
2017-12-15T09:58:32.156Z,7.20
2017-12-15T10:01:00.370Z,7.50
2017-12-15T10:03:27.899Z,7.77
2017-12-15T10:05:55.336Z,7.80
2017-12-15T10:08:22.822Z,6.97
2017-12-15T10:10:51.048Z,9.13
2017-12-15T10:13:18.502Z,8.40
2017-12-15T10:15:46.015Z,8.97
2017-12-15T10:18:13.552Z,9.10
2017-12-15T10:20:41.086Z,12.03
2017-12-15T10:23:08.564Z,9.30
2017-12-15T10:25:36.058Z,8.10
2017-12-15T10:28:03.520Z,8.63
2017-12-15T10:30:31.190Z,7.87
2017-12-15T10:32:58.678Z,7.17
2017-12-15T10:35:27.005Z,9.30
2017-12-15T10:37:55.302Z,7.60
2017-12-15T10:40:22.804Z,7.80
2017-12-15T10:42:50.261Z,8.40
2017-12-15T10:45:17.720Z,7.40
2017-12-15T10:47:45.252Z,7.50
2017-12-15T10:50:12.729Z,7.23
2017-12-15T10:52:41.019Z,8.40
2017-12-15T10:55:08.482Z,9.53
2017-12-15T10:57:37.500Z,7.63
2017-12-15T11:00:04.979Z,7.80
2017-12-15T11:02:32.489Z,6.73
2017-12-15T11:04:59.949Z,6.43
2017-12-15T11:07:27.531Z,7.20
2017-12-15T11:09:55.028Z,7.40
2017-12-15T11:12:23.243Z,5.93
2017-12-15T11:14:50.784Z,6.27
2017-12-15T11:17:18.228Z,5.50
2017-12-15T11:19:46.550Z,6.07
2017-12-15T11:22:13.969Z,5.30
2017-12-15T11:24:41.373Z,5.23
2017-12-15T11:27:08.959Z,4.50
2017-12-15T11:29:36.381Z,5.40
2017-12-15T11:32:03.882Z,5.20
2017-12-15T11:34:31.330Z,4.43
2017-12-15T11:36:58.735Z,4.63
2017-12-15T11:39:27.045Z,5.63
2017-12-15T11:41:54.524Z,4.10
2017-12-15T11:44:22.050Z,3.70
2017-12-15T11:46:49.500Z,3.90
2017-12-15T11:49:17.810Z,3.70
2017-12-15T11:51:45.273Z,3.90
2017-12-15T11:54:12.878Z,3.57
2017-12-15T11:56:40.294Z,3.20
2017-12-15T11:59:07.812Z,3.00
2017-12-15T12:01:35.259Z,2.77
2017-12-15T12:04:02.777Z,2.30
2017-12-15T12:06:30.269Z,2.33
2017-12-15T12:08:57.802Z,1.77
2017-12-15T12:11:25.261Z,2.17
2017-12-15T12:13:53.489Z,2.47
2017-12-15T12:16:21.040Z,1.90
2017-12-15T12:18:48.529Z,1.30
2017-12-15T12:21:16.149Z,2.23
2017-12-15T12:23:43.608Z,1.50
2017-12-15T12:26:11.111Z,2.17
2017-12-15T12:28:38.772Z,1.83
2017-12-15T12:31:06.261Z,2.10
2017-12-15T12:33:34.518Z,1.87
2017-12-15T12:36:02.059Z,3.53
2017-12-15T12:38:29.555Z,1.80
2017-12-15T12:40:57.055Z,2.10
2017-12-15T12:43:24.555Z,1.90
2017-12-15T12:45:52.152Z,2.27
2017-12-15T12:48:19.607Z,1.60
2017-12-15T12:50:47.117Z,2.10
2017-12-15T12:53:14.572Z,2.70
2017-12-15T12:55:42.792Z,2.53
2017-12-15T12:58:10.341Z,1.60
2017-12-15T13:00:37.778Z,2.40
2017-12-15T13:03:05.988Z,2.30
2017-12-15T13:05:33.472Z,2.30
2017-12-15T13:08:00.977Z,2.30
2017-12-15T13:10:29.294Z,1.80
2017-12-15T13:12:56.756Z,1.83
2017-12-15T13:15:24.252Z,1.60
2017-12-15T13:17:51.699Z,1.77
2017-12-15T13:20:19.225Z,1.90
2017-12-15T13:22:47.467Z,2.00
2017-12-15T13:25:14.979Z,1.40
2017-12-15T13:27:42.467Z,2.50
2017-12-15T13:30:09.998Z,1.97
2017-12-15T13:32:37.472Z,2.20
2017-12-15T13:35:04.967Z,1.80
2017-12-15T13:37:32.552Z,2.27
2017-12-15T13:40:00.019Z,1.87
2017-12-15T13:42:28.401Z,1.93
2017-12-15T13:44:55.955Z,2.03
2017-12-15T13:47:23.431Z,1.73
2017-12-15T13:49:51.149Z,1.67
2017-12-15T13:52:18.627Z,2.00
2017-12-15T13:54:46.112Z,2.33
2017-12-15T13:57:13.592Z,2.33
2017-12-15T13:59:41.050Z,1.90
2017-12-15T14:02:08.548Z,2.17
2017-12-15T14:04:36.011Z,1.60
2017-12-15T14:07:03.523Z,1.93
2017-12-15T14:09:31.131Z,2.30
2017-12-15T14:11:58.626Z,1.80
2017-12-15T14:14:26.988Z,1.90
2017-12-15T14:16:54.604Z,2.10
2017-12-15T14:19:22.072Z,2.73
2017-12-15T14:21:49.594Z,1.97
2017-12-15T14:24:17.103Z,1.97
2017-12-15T14:26:44.557Z,2.50
2017-12-15T14:29:12.099Z,3.90
2017-12-15T14:31:39.540Z,1.77
2017-12-15T14:34:07.096Z,1.97
2017-12-15T14:36:34.510Z,1.47
2017-12-15T14:39:02.009Z,2.50
2017-12-15T14:41:30.226Z,2.50
2017-12-15T14:43:57.899Z,2.67
2017-12-15T14:46:25.381Z,2.60
2017-12-15T14:48:52.768Z,2.37
2017-12-15T14:51:21.049Z,2.50
2017-12-15T14:53:49.270Z,2.73
2017-12-15T14:56:16.799Z,2.90
2017-12-15T14:58:44.332Z,1.53
2017-12-15T15:01:11.795Z,3.23
2017-12-15T15:03:39.302Z,2.60
2017-12-15T15:06:06.774Z,2.43
2017-12-15T15:08:34.233Z,3.40
2017-12-15T15:11:01.735Z,3.53
2017-12-15T15:13:29.207Z,3.43
2017-12-15T15:15:56.739Z,3.23
2017-12-15T15:18:24.241Z,3.27
2017-12-15T15:20:51.724Z,3.97
2017-12-15T15:23:19.237Z,3.90
2017-12-15T15:25:46.700Z,3.30
2017-12-15T15:28:14.156Z,3.07
2017-12-15T15:30:41.673Z,3.57
2017-12-15T15:33:09.917Z,3.67
2017-12-15T15:35:37.402Z,3.47
2017-12-15T15:38:04.936Z,2.87
2017-12-15T15:40:32.432Z,2.73
2017-12-15T15:42:59.830Z,3.13
2017-12-15T15:45:27.348Z,3.20
2017-12-15T15:47:55.595Z,5.70
2017-12-15T15:50:23.116Z,6.00
2017-12-15T15:52:51.386Z,4.80
2017-12-15T15:55:19.696Z,4.17
2017-12-15T15:57:47.894Z,3.47
2017-12-15T16:00:15.370Z,2.90
2017-12-15T16:02:42.904Z,2.80
2017-12-15T16:05:10.421Z,2.90
2017-12-15T16:07:37.897Z,3.70
2017-12-15T16:10:05.426Z,3.47
2017-12-15T16:12:33.599Z,3.47
2017-12-15T16:15:01.090Z,4.40
2017-12-15T16:17:28.569Z,4.77
2017-12-15T16:19:56.852Z,4.30
2017-12-15T16:22:24.369Z,5.10
2017-12-15T16:24:52.582Z,4.73
2017-12-15T16:27:20.053Z,4.50
2017-12-15T16:29:48.331Z,4.20
2017-12-15T16:32:15.825Z,3.43
2017-12-15T16:34:43.299Z,4.37
2017-12-15T16:37:10.867Z,4.07
2017-12-15T16:39:38.289Z,4.27
2017-12-15T16:42:05.798Z,4.07
2017-12-15T16:44:33.277Z,4.70
2017-12-15T16:47:00.764Z,4.33
2017-12-15T16:49:28.248Z,4.10
2017-12-15T16:51:55.771Z,4.97
2017-12-15T16:54:23.227Z,4.93
2017-12-15T16:56:50.696Z,4.17
2017-12-15T16:59:18.208Z,4.40
2017-12-15T17:01:45.678Z,4.43
2017-12-15T17:04:13.202Z,4.83
2017-12-15T17:06:40.693Z,4.00
2017-12-15T17:09:08.944Z,4.20
2017-12-15T17:11:37.184Z,3.33
2017-12-15T17:14:04.728Z,3.70
2017-12-15T17:16:32.175Z,5.00
2017-12-15T17:18:59.701Z,4.73
2017-12-15T17:21:27.156Z,5.70
2017-12-15T17:23:54.604Z,5.10
2017-12-15T17:26:22.126Z,4.67
2017-12-15T17:28:49.634Z,5.00
2017-12-15T17:31:17.096Z,4.40
2017-12-15T17:33:45.377Z,5.20
2017-12-15T17:36:12.885Z,7.73
2017-12-15T17:38:41.137Z,5.40
2017-12-15T17:41:08.645Z,4.10
2017-12-15T17:43:36.918Z,3.80
2017-12-15T17:46:04.390Z,3.60
2017-12-15T17:48:31.908Z,3.70
2017-12-15T17:50:59.368Z,4.13
2017-12-15T17:53:26.886Z,3.97
2017-12-15T17:55:54.376Z,3.70
2017-12-15T17:58:21.838Z,3.20
2017-12-15T18:00:49.358Z,3.17
2017-12-15T18:03:17.612Z,3.80
2017-12-15T18:05:46.663Z,3.37
2017-12-15T18:08:14.166Z,2.93
2017-12-15T18:10:41.619Z,3.60
2017-12-15T18:13:09.119Z,3.60
2017-12-15T18:15:36.633Z,3.40
2017-12-15T18:18:04.786Z,4.10
2017-12-15T18:20:32.339Z,2.90
2017-12-15T18:22:59.818Z,2.40
2017-12-15T18:25:27.305Z,2.87
2017-12-15T18:27:54.793Z,4.47
2017-12-15T18:30:22.304Z,3.43
2017-12-15T18:32:49.788Z,3.43
2017-12-15T18:35:17.315Z,3.43
2017-12-15T18:37:45.019Z,5.13
2017-12-15T18:40:12.477Z,4.07
2017-12-15T18:42:39.973Z,3.90
2017-12-15T18:45:07.484Z,4.20
2017-12-15T18:47:35.025Z,4.67
2017-12-15T18:50:03.303Z,4.67
2017-12-15T18:52:31.576Z,4.13
2017-12-15T18:54:59.056Z,4.10
2017-12-15T18:57:26.583Z,3.87
2017-12-15T18:59:54.045Z,6.40
2017-12-15T19:02:21.578Z,5.90
2017-12-15T19:04:49.076Z,3.77
2017-12-15T19:07:16.540Z,4.13
2017-12-15T19:09:44.046Z,3.50
2017-12-15T19:12:11.580Z,3.80
2017-12-15T19:14:39.799Z,3.53
2017-12-15T19:17:07.263Z,4.57
2017-12-15T19:19:34.779Z,5.17
2017-12-15T19:22:02.999Z,5.10
2017-12-15T19:24:30.488Z,5.70
2017-12-15T19:26:57.955Z,5.50
2017-12-15T19:29:25.451Z,4.80
2017-12-15T19:31:52.961Z,6.23
2017-12-15T19:34:20.484Z,5.37
2017-12-15T19:36:48.704Z,5.97
2017-12-15T19:39:16.978Z,5.77
2017-12-15T19:41:44.474Z,5.83
2017-12-15T19:44:11.951Z,5.73
2017-12-15T19:46:39.554Z,5.80
2017-12-15T19:49:06.994Z,6.27
2017-12-15T19:51:34.463Z,5.67
2017-12-15T19:54:01.982Z,6.47
2017-12-15T19:56:29.447Z,6.60
2017-12-15T19:58:56.914Z,5.63
2017-12-15T20:01:24.451Z,6.80
2017-12-15T20:03:51.910Z,6.70
2017-12-15T20:06:19.407Z,6.40
2017-12-15T20:08:47.601Z,6.80
2017-12-15T20:11:15.076Z,7.40
2017-12-15T20:13:43.330Z,6.10
2017-12-15T20:16:10.830Z,6.50
2017-12-15T20:18:39.187Z,8.50
2017-12-15T20:21:06.634Z,8.10
2017-12-15T20:23:34.214Z,7.90
2017-12-15T20:26:01.724Z,7.67
2017-12-15T20:28:29.181Z,7.37
2017-12-15T20:30:56.681Z,7.70
2017-12-15T20:33:24.199Z,8.17
2017-12-15T20:35:51.627Z,9.50
2017-12-15T20:38:19.109Z,8.37
2017-12-15T20:40:46.585Z,8.50
2017-12-15T20:43:14.166Z,8.47
2017-12-15T20:45:41.599Z,9.60
2017-12-15T20:48:09.831Z,9.50
2017-12-15T20:50:37.396Z,9.93
2017-12-15T20:53:05.577Z,10.23
2017-12-15T20:55:33.075Z,9.20
2017-12-15T20:58:00.528Z,8.30
2017-12-15T21:00:28.011Z,8.30
2017-12-15T21:02:56.272Z,8.57
2017-12-15T21:05:23.749Z,9.33
2017-12-15T21:07:51.235Z,8.50
2017-12-15T21:10:19.486Z,8.73
2017-12-15T21:12:47.045Z,8.83
2017-12-15T21:15:14.565Z,8.97
2017-12-15T21:17:42.048Z,9.07
2017-12-15T21:20:09.556Z,9.33
2017-12-15T21:22:37.805Z,9.47
2017-12-15T21:25:05.623Z,10.03
2017-12-15T21:27:33.110Z,10.30
2017-12-15T21:30:01.321Z,9.23
2017-12-15T21:32:28.917Z,8.80
2017-12-15T21:34:56.421Z,10.17
2017-12-15T21:37:23.900Z,10.13
2017-12-15T21:39:51.401Z,10.50
2017-12-15T21:42:19.670Z,9.77
2017-12-15T21:44:47.132Z,9.30
2017-12-15T21:47:14.648Z,10.70
2017-12-15T21:49:42.137Z,11.10
2017-12-15T21:52:09.770Z,11.77
2017-12-15T21:54:37.270Z,11.03
2017-12-15T21:57:04.769Z,10.87
2017-12-15T21:59:33.015Z,10.23
2017-12-15T22:02:00.533Z,10.47
2017-12-15T22:04:28.023Z,11.07
2017-12-15T22:06:55.560Z,9.63
2017-12-15T22:09:23.058Z,10.30
2017-12-15T22:11:50.541Z,9.87
2017-12-15T22:14:18.059Z,12.10
2017-12-15T22:16:45.611Z,10.43
2017-12-15T22:19:13.091Z,9.83
2017-12-15T22:21:40.599Z,10.20
2017-12-15T22:24:08.910Z,10.90
2017-12-15T22:26:36.433Z,12.87
2017-12-15T22:29:03.941Z,16.20
2017-12-15T22:31:32.216Z,12.90
2017-12-15T22:34:00.525Z,10.30
2017-12-15T22:36:27.964Z,12.50
2017-12-15T22:38:55.471Z,11.67
2017-12-15T22:41:22.940Z,11.27
2017-12-15T22:43:50.422Z,11.00
2017-12-15T22:46:18.691Z,12.00
2017-12-15T22:48:47.671Z,11.47
2017-12-15T22:51:15.153Z,11.33
2017-12-15T22:53:42.681Z,11.70
2017-12-15T22:56:10.878Z,12.57
2017-12-15T22:58:38.510Z,13.07
2017-12-15T23:01:06.031Z,11.13
2017-12-15T23:03:33.463Z,12.37
2017-12-15T23:06:00.962Z,12.63
2017-12-15T23:08:28.486Z,11.67
2017-12-15T23:10:55.937Z,12.67
2017-12-15T23:13:23.421Z,12.77
2017-12-15T23:15:50.907Z,12.30
2017-12-15T23:18:19.158Z,13.60
2017-12-15T23:20:46.660Z,13.63
2017-12-15T23:23:14.950Z,14.37
2017-12-15T23:25:43.198Z,13.33
2017-12-15T23:28:10.673Z,14.50
2017-12-15T23:30:38.897Z,15.03
2017-12-15T23:33:06.410Z,14.47
2017-12-15T23:35:33.868Z,15.37
2017-12-15T23:38:01.413Z,15.13
2017-12-15T23:40:28.958Z,14.03
2017-12-15T23:42:56.462Z,13.77
2017-12-15T23:45:23.986Z,12.47
2017-12-15T23:47:51.480Z,13.17
2017-12-15T23:50:19.091Z,11.93
2017-12-15T23:52:46.572Z,13.00
2017-12-15T23:55:14.103Z,11.00
2017-12-15T23:57:41.593Z,12.97
